Terminal Aerodrome Forecast
Issued by NWS

Home | Current Version | Previous Version | Text Only | Print | Product List | Glossary On
Versions: 1 2 3 4 5 6 7 8 9 10 11 12 13 14
000
FTUS45 KABQ 261144
TAFTCC
TAF
KTCC 261144Z 2612/2712 23008KT P6SM SCT250
     FM261600 02015G25KT P6SM SCT250
     FM261800 03025G38KT P6SM FEW250
     FM270100 05015KT P6SM FEW050
     FM270500 02006KT P6SM FEW050=

USA.gov is the U.S. government's official web portal to all federal, state and local government web resources and services.